sensor_id;sensor_type;location;lat;lon;timestamp;P1;durP1;ratioP1;P2;durP2;ratioP2
63259;SDS011;49390;51.380;0.098;2023-10-31T00:01:08;8.15;;;3.10;;
63259;SDS011;49390;51.380;0.098;2023-10-31T00:03:36;9.77;;;3.00;;
63259;SDS011;49390;51.380;0.098;2023-10-31T00:06:04;5.38;;;2.72;;
63259;SDS011;49390;51.380;0.098;2023-10-31T00:08:32;6.97;;;3.00;;
63259;SDS011;49390;51.380;0.098;2023-10-31T00:11:00;5.70;;;2.80;;
63259;SDS011;49390;51.380;0.098;2023-10-31T00:13:28;6.32;;;2.90;;
63259;SDS011;49390;51.380;0.098;2023-10-31T00:15:55;8.20;;;3.30;;
63259;SDS011;49390;51.380;0.098;2023-10-31T00:18:23;7.97;;;3.67;;
63259;SDS011;49390;51.380;0.098;2023-10-31T00:20:51;6.28;;;3.13;;
63259;SDS011;49390;51.380;0.098;2023-10-31T00:23:19;6.55;;;2.67;;
63259;SDS011;49390;51.380;0.098;2023-10-31T00:25:47;7.57;;;3.22;;
63259;SDS011;49390;51.380;0.098;2023-10-31T00:28:15;11.30;;;5.50;;
63259;SDS011;49390;51.380;0.098;2023-10-31T00:30:42;16.58;;;5.82;;
63259;SDS011;49390;51.380;0.098;2023-10-31T00:33:10;11.45;;;4.40;;
63259;SDS011;49390;51.380;0.098;2023-10-31T00:35:38;5.60;;;2.70;;
63259;SDS011;49390;51.380;0.098;2023-10-31T00:38:06;5.25;;;2.65;;
63259;SDS011;49390;51.380;0.098;2023-10-31T00:40:34;8.45;;;3.28;;
63259;SDS011;49390;51.380;0.098;2023-10-31T00:43:02;8.15;;;3.78;;
63259;SDS011;49390;51.380;0.098;2023-10-31T00:45:30;6.65;;;2.85;;
63259;SDS011;49390;51.380;0.098;2023-10-31T00:49:00;7.13;;;3.13;;
63259;SDS011;49390;51.380;0.098;2023-10-31T00:51:28;7.07;;;2.55;;
63259;SDS011;49390;51.380;0.098;2023-10-31T00:53:56;5.22;;;2.40;;
63259;SDS011;49390;51.380;0.098;2023-10-31T00:56:24;7.15;;;2.53;;
63259;SDS011;49390;51.380;0.098;2023-10-31T00:58:51;5.10;;;2.45;;
63259;SDS011;49390;51.380;0.098;2023-10-31T01:01:19;3.47;;;2.03;;
63259;SDS011;49390;51.380;0.098;2023-10-31T01:03:47;6.13;;;2.72;;
63259;SDS011;49390;51.380;0.098;2023-10-31T01:06:15;5.18;;;2.72;;
63259;SDS011;49390;51.380;0.098;2023-10-31T01:08:43;6.45;;;2.53;;
63259;SDS011;49390;51.380;0.098;2023-10-31T01:11:11;5.82;;;2.55;;
63259;SDS011;49390;51.380;0.098;2023-10-31T01:13:38;5.80;;;2.40;;
63259;SDS011;49390;51.380;0.098;2023-10-31T01:16:06;6.25;;;2.28;;
63259;SDS011;49390;51.380;0.098;2023-10-31T01:18:34;4.30;;;2.20;;
63259;SDS011;49390;51.380;0.098;2023-10-31T01:21:02;5.85;;;2.45;;
63259;SDS011;49390;51.380;0.098;2023-10-31T01:23:30;5.75;;;2.97;;
63259;SDS011;49390;51.380;0.098;2023-10-31T01:25:58;4.68;;;2.53;;
63259;SDS011;49390;51.380;0.098;2023-10-31T01:28:26;6.32;;;3.40;;
63259;SDS011;49390;51.380;0.098;2023-10-31T01:30:54;7.80;;;3.00;;
63259;SDS011;49390;51.380;0.098;2023-10-31T01:33:21;8.38;;;3.10;;
63259;SDS011;49390;51.380;0.098;2023-10-31T01:35:49;11.65;;;3.60;;
63259;SDS011;49390;51.380;0.098;2023-10-31T01:38:17;6.68;;;3.22;;
63259;SDS011;49390;51.380;0.098;2023-10-31T01:40:48;6.53;;;2.90;;
63259;SDS011;49390;51.380;0.098;2023-10-31T01:43:33;9.25;;;3.10;;
63259;SDS011;49390;51.380;0.098;2023-10-31T01:46:04;7.97;;;3.20;;
63259;SDS011;49390;51.380;0.098;2023-10-31T01:48:32;6.07;;;2.90;;
63259;SDS011;49390;51.380;0.098;2023-10-31T01:51:02;6.65;;;3.10;;
63259;SDS011;49390;51.380;0.098;2023-10-31T01:53:33;5.68;;;2.70;;
63259;SDS011;49390;51.380;0.098;2023-10-31T01:56:03;8.40;;;3.30;;
63259;SDS011;49390;51.380;0.098;2023-10-31T01:58:33;6.53;;;3.10;;
63259;SDS011;49390;51.380;0.098;2023-10-31T02:01:02;6.15;;;2.80;;
63259;SDS011;49390;51.380;0.098;2023-10-31T02:03:31;6.32;;;3.08;;
63259;SDS011;49390;51.380;0.098;2023-10-31T02:06:00;5.03;;;3.03;;
63259;SDS011;49390;51.380;0.098;2023-10-31T02:08:28;6.60;;;3.38;;
63259;SDS011;49390;51.380;0.098;2023-10-31T02:10:56;5.80;;;3.13;;
63259;SDS011;49390;51.380;0.098;2023-10-31T02:13:24;6.18;;;3.00;;
63259;SDS011;49390;51.380;0.098;2023-10-31T02:15:52;6.18;;;3.28;;
63259;SDS011;49390;51.380;0.098;2023-10-31T02:18:19;6.13;;;3.20;;
63259;SDS011;49390;51.380;0.098;2023-10-31T02:20:49;8.48;;;2.90;;
63259;SDS011;49390;51.380;0.098;2023-10-31T02:23:16;5.82;;;3.03;;
63259;SDS011;49390;51.380;0.098;2023-10-31T02:25:44;8.02;;;3.58;;
63259;SDS011;49390;51.380;0.098;2023-10-31T02:28:12;3.47;;;2.30;;
63259;SDS011;49390;51.380;0.098;2023-10-31T02:30:40;6.20;;;2.95;;
63259;SDS011;49390;51.380;0.098;2023-10-31T02:33:08;4.78;;;2.67;;
63259;SDS011;49390;51.380;0.098;2023-10-31T02:35:36;6.05;;;2.58;;
63259;SDS011;49390;51.380;0.098;2023-10-31T02:38:04;4.70;;;2.90;;
63259;SDS011;49390;51.380;0.098;2023-10-31T02:40:32;5.40;;;2.83;;
63259;SDS011;49390;51.380;0.098;2023-10-31T02:42:59;6.45;;;3.10;;
63259;SDS011;49390;51.380;0.098;2023-10-31T02:45:29;7.65;;;3.17;;
63259;SDS011;49390;51.380;0.098;2023-10-31T02:47:56;7.32;;;3.25;;
63259;SDS011;49390;51.380;0.098;2023-10-31T02:50:24;7.22;;;3.20;;
63259;SDS011;49390;51.380;0.098;2023-10-31T02:52:52;6.80;;;3.50;;
63259;SDS011;49390;51.380;0.098;2023-10-31T02:55:20;8.88;;;3.95;;
63259;SDS011;49390;51.380;0.098;2023-10-31T02:57:47;8.27;;;4.57;;
63259;SDS011;49390;51.380;0.098;2023-10-31T03:00:15;7.05;;;3.90;;
63259;SDS011;49390;51.380;0.098;2023-10-31T03:02:43;8.38;;;3.70;;
63259;SDS011;49390;51.380;0.098;2023-10-31T03:05:11;7.03;;;4.03;;
63259;SDS011;49390;51.380;0.098;2023-10-31T03:07:39;8.90;;;3.67;;
63259;SDS011;49390;51.380;0.098;2023-10-31T03:10:07;7.40;;;4.10;;
63259;SDS011;49390;51.380;0.098;2023-10-31T03:12:34;6.50;;;3.75;;
63259;SDS011;49390;51.380;0.098;2023-10-31T03:15:02;5.85;;;3.20;;
63259;SDS011;49390;51.380;0.098;2023-10-31T03:17:30;5.65;;;3.20;;
63259;SDS011;49390;51.380;0.098;2023-10-31T03:19:58;6.43;;;3.10;;
63259;SDS011;49390;51.380;0.098;2023-10-31T03:22:26;5.43;;;2.60;;
63259;SDS011;49390;51.380;0.098;2023-10-31T03:24:54;4.60;;;2.75;;
63259;SDS011;49390;51.380;0.098;2023-10-31T03:27:21;5.13;;;2.78;;
63259;SDS011;49390;51.380;0.098;2023-10-31T03:29:50;5.50;;;2.80;;
63259;SDS011;49390;51.380;0.098;2023-10-31T03:32:17;4.28;;;2.63;;
63259;SDS011;49390;51.380;0.098;2023-10-31T03:34:45;7.50;;;2.70;;
63259;SDS011;49390;51.380;0.098;2023-10-31T03:37:13;5.28;;;2.80;;
63259;SDS011;49390;51.380;0.098;2023-10-31T03:39:41;8.18;;;2.83;;
63259;SDS011;49390;51.380;0.098;2023-10-31T03:42:08;5.70;;;2.83;;
63259;SDS011;49390;51.380;0.098;2023-10-31T03:44:36;5.93;;;2.50;;
63259;SDS011;49390;51.380;0.098;2023-10-31T03:47:04;4.65;;;2.40;;
63259;SDS011;49390;51.380;0.098;2023-10-31T03:49:32;5.13;;;3.00;;
63259;SDS011;49390;51.380;0.098;2023-10-31T03:52:00;7.15;;;2.70;;
63259;SDS011;49390;51.380;0.098;2023-10-31T03:54:28;7.72;;;2.70;;
63259;SDS011;49390;51.380;0.098;2023-10-31T03:56:55;9.10;;;2.63;;
63259;SDS011;49390;51.380;0.098;2023-10-31T03:59:23;6.32;;;2.50;;
63259;SDS011;49390;51.380;0.098;2023-10-31T04:01:51;6.53;;;2.65;;
63259;SDS011;49390;51.380;0.098;2023-10-31T04:04:19;4.28;;;2.42;;
63259;SDS011;49390;51.380;0.098;2023-10-31T04:06:46;5.18;;;2.22;;
63259;SDS011;49390;51.380;0.098;2023-10-31T04:09:14;4.40;;;2.55;;
63259;SDS011;49390;51.380;0.098;2023-10-31T04:11:42;3.15;;;2.15;;
63259;SDS011;49390;51.380;0.098;2023-10-31T04:14:10;4.32;;;2.50;;
63259;SDS011;49390;51.380;0.098;2023-10-31T04:16:39;4.80;;;2.10;;
63259;SDS011;49390;51.380;0.098;2023-10-31T04:19:07;5.55;;;2.20;;
63259;SDS011;49390;51.380;0.098;2023-10-31T04:21:35;6.55;;;2.47;;
63259;SDS011;49390;51.380;0.098;2023-10-31T04:24:04;5.78;;;2.20;;
63259;SDS011;49390;51.380;0.098;2023-10-31T04:26:32;5.47;;;2.47;;
63259;SDS011;49390;51.380;0.098;2023-10-31T04:29:00;5.78;;;2.38;;
63259;SDS011;49390;51.380;0.098;2023-10-31T04:31:27;4.03;;;2.10;;
63259;SDS011;49390;51.380;0.098;2023-10-31T04:34:07;3.42;;;2.00;;
63259;SDS011;49390;51.380;0.098;2023-10-31T04:36:35;6.00;;;2.53;;
63259;SDS011;49390;51.380;0.098;2023-10-31T04:39:03;4.55;;;2.35;;
63259;SDS011;49390;51.380;0.098;2023-10-31T04:41:31;4.38;;;2.20;;
63259;SDS011;49390;51.380;0.098;2023-10-31T04:43:59;8.90;;;2.15;;
63259;SDS011;49390;51.380;0.098;2023-10-31T04:46:27;6.65;;;2.33;;
63259;SDS011;49390;51.380;0.098;2023-10-31T04:48:54;4.53;;;2.58;;
63259;SDS011;49390;51.380;0.098;2023-10-31T04:51:22;4.50;;;2.00;;
63259;SDS011;49390;51.380;0.098;2023-10-31T04:53:50;4.30;;;2.30;;
63259;SDS011;49390;51.380;0.098;2023-10-31T04:56:18;4.80;;;2.42;;
63259;SDS011;49390;51.380;0.098;2023-10-31T04:58:46;4.95;;;2.03;;
63259;SDS011;49390;51.380;0.098;2023-10-31T05:01:14;5.18;;;2.72;;
63259;SDS011;49390;51.380;0.098;2023-10-31T05:03:41;4.68;;;2.28;;
63259;SDS011;49390;51.380;0.098;2023-10-31T05:06:10;4.45;;;2.25;;
63259;SDS011;49390;51.380;0.098;2023-10-31T05:08:38;6.32;;;3.28;;
63259;SDS011;49390;51.380;0.098;2023-10-31T05:11:05;5.78;;;2.45;;
63259;SDS011;49390;51.380;0.098;2023-10-31T05:13:33;5.85;;;2.60;;
63259;SDS011;49390;51.380;0.098;2023-10-31T05:16:01;6.43;;;2.88;;
63259;SDS011;49390;51.380;0.098;2023-10-31T05:18:29;6.38;;;2.55;;
63259;SDS011;49390;51.380;0.098;2023-10-31T05:20:56;5.38;;;2.70;;
63259;SDS011;49390;51.380;0.098;2023-10-31T05:23:24;5.50;;;2.47;;
63259;SDS011;49390;51.380;0.098;2023-10-31T05:25:52;4.57;;;2.47;;
63259;SDS011;49390;51.380;0.098;2023-10-31T05:28:20;5.07;;;2.20;;
63259;SDS011;49390;51.380;0.098;2023-10-31T05:30:47;4.38;;;2.30;;
63259;SDS011;49390;51.380;0.098;2023-10-31T05:33:16;5.75;;;2.22;;
63259;SDS011;49390;51.380;0.098;2023-10-31T05:35:44;6.20;;;2.70;;
63259;SDS011;49390;51.380;0.098;2023-10-31T05:38:12;5.53;;;2.80;;
63259;SDS011;49390;51.380;0.098;2023-10-31T05:40:40;6.47;;;2.40;;
63259;SDS011;49390;51.380;0.098;2023-10-31T05:43:08;3.78;;;2.53;;
63259;SDS011;49390;51.380;0.098;2023-10-31T05:45:35;5.03;;;2.80;;
63259;SDS011;49390;51.380;0.098;2023-10-31T05:48:03;6.55;;;2.90;;
63259;SDS011;49390;51.380;0.098;2023-10-31T05:50:31;8.20;;;2.65;;
63259;SDS011;49390;51.380;0.098;2023-10-31T05:52:59;7.13;;;2.70;;
63259;SDS011;49390;51.380;0.098;2023-10-31T05:55:27;5.75;;;2.35;;
63259;SDS011;49390;51.380;0.098;2023-10-31T05:57:55;6.10;;;2.42;;
63259;SDS011;49390;51.380;0.098;2023-10-31T06:00:22;5.80;;;2.78;;
63259;SDS011;49390;51.380;0.098;2023-10-31T06:02:51;4.82;;;2.72;;
63259;SDS011;49390;51.380;0.098;2023-10-31T06:05:18;3.70;;;2.55;;
63259;SDS011;49390;51.380;0.098;2023-10-31T06:07:46;6.03;;;2.75;;
63259;SDS011;49390;51.380;0.098;2023-10-31T06:10:15;5.82;;;2.45;;
63259;SDS011;49390;51.380;0.098;2023-10-31T06:12:43;8.43;;;2.88;;
63259;SDS011;49390;51.380;0.098;2023-10-31T06:15:10;6.20;;;2.30;;
63259;SDS011;49390;51.380;0.098;2023-10-31T06:17:38;5.80;;;2.20;;
63259;SDS011;49390;51.380;0.098;2023-10-31T06:20:07;3.92;;;2.20;;
63259;SDS011;49390;51.380;0.098;2023-10-31T06:22:36;8.10;;;2.50;;
63259;SDS011;49390;51.380;0.098;2023-10-31T06:25:03;3.97;;;2.00;;
63259;SDS011;49390;51.380;0.098;2023-10-31T06:27:32;4.78;;;2.35;;
63259;SDS011;49390;51.380;0.098;2023-10-31T06:29:59;5.15;;;2.38;;
63259;SDS011;49390;51.380;0.098;2023-10-31T06:32:47;4.25;;;2.05;;
63259;SDS011;49390;51.380;0.098;2023-10-31T06:35:14;5.55;;;2.40;;
63259;SDS011;49390;51.380;0.098;2023-10-31T06:37:42;5.53;;;2.10;;
63259;SDS011;49390;51.380;0.098;2023-10-31T06:40:10;5.32;;;2.40;;
63259;SDS011;49390;51.380;0.098;2023-10-31T06:42:38;5.35;;;2.22;;
63259;SDS011;49390;51.380;0.098;2023-10-31T06:45:06;5.05;;;2.42;;
63259;SDS011;49390;51.380;0.098;2023-10-31T06:47:34;5.05;;;2.20;;
63259;SDS011;49390;51.380;0.098;2023-10-31T06:50:02;4.65;;;2.30;;
63259;SDS011;49390;51.380;0.098;2023-10-31T06:52:30;5.60;;;2.10;;
63259;SDS011;49390;51.380;0.098;2023-10-31T06:54:58;4.80;;;2.15;;
63259;SDS011;49390;51.380;0.098;2023-10-31T06:57:26;6.28;;;2.15;;
63259;SDS011;49390;51.380;0.098;2023-10-31T06:59:53;5.00;;;1.83;;
63259;SDS011;49390;51.380;0.098;2023-10-31T07:02:21;4.13;;;2.20;;
63259;SDS011;49390;51.380;0.098;2023-10-31T07:04:50;6.75;;;2.53;;
63259;SDS011;49390;51.380;0.098;2023-10-31T07:07:18;6.45;;;2.30;;
63259;SDS011;49390;51.380;0.098;2023-10-31T07:09:45;4.85;;;2.13;;
63259;SDS011;49390;51.380;0.098;2023-10-31T07:12:13;3.72;;;2.00;;
63259;SDS011;49390;51.380;0.098;2023-10-31T07:14:41;8.68;;;2.10;;
63259;SDS011;49390;51.380;0.098;2023-10-31T07:17:09;5.00;;;1.95;;
63259;SDS011;49390;51.380;0.098;2023-10-31T07:19:37;6.05;;;2.65;;
63259;SDS011;49390;51.380;0.098;2023-10-31T07:22:05;5.43;;;2.00;;
63259;SDS011;49390;51.380;0.098;2023-10-31T07:24:32;5.43;;;2.10;;
63259;SDS011;49390;51.380;0.098;2023-10-31T07:27:01;5.13;;;2.10;;
63259;SDS011;49390;51.380;0.098;2023-10-31T07:29:28;8.95;;;2.20;;
63259;SDS011;49390;51.380;0.098;2023-10-31T07:31:56;4.95;;;1.90;;
63259;SDS011;49390;51.380;0.098;2023-10-31T07:34:24;4.60;;;2.28;;
63259;SDS011;49390;51.380;0.098;2023-10-31T07:36:52;9.23;;;2.47;;
63259;SDS011;49390;51.380;0.098;2023-10-31T07:39:19;4.32;;;1.80;;
63259;SDS011;49390;51.380;0.098;2023-10-31T07:41:47;5.63;;;2.42;;
63259;SDS011;49390;51.380;0.098;2023-10-31T07:44:16;7.32;;;2.50;;
63259;SDS011;49390;51.380;0.098;2023-10-31T07:46:44;5.10;;;2.70;;
63259;SDS011;49390;51.380;0.098;2023-10-31T07:49:12;4.70;;;2.45;;
63259;SDS011;49390;51.380;0.098;2023-10-31T07:51:40;6.10;;;1.90;;
63259;SDS011;49390;51.380;0.098;2023-10-31T07:54:07;5.38;;;2.55;;
63259;SDS011;49390;51.380;0.098;2023-10-31T07:56:36;7.25;;;2.20;;
63259;SDS011;49390;51.380;0.098;2023-10-31T07:59:05;2.97;;;1.70;;
63259;SDS011;49390;51.380;0.098;2023-10-31T08:01:34;4.57;;;1.77;;
63259;SDS011;49390;51.380;0.098;2023-10-31T08:04:02;4.15;;;1.83;;
63259;SDS011;49390;51.380;0.098;2023-10-31T08:06:30;5.43;;;2.35;;
63259;SDS011;49390;51.380;0.098;2023-10-31T08:08:58;4.43;;;1.88;;
63259;SDS011;49390;51.380;0.098;2023-10-31T08:11:26;5.13;;;2.08;;
63259;SDS011;49390;51.380;0.098;2023-10-31T08:13:54;4.82;;;1.85;;
63259;SDS011;49390;51.380;0.098;2023-10-31T08:16:22;5.38;;;2.17;;
63259;SDS011;49390;51.380;0.098;2023-10-31T08:18:50;5.72;;;2.20;;
63259;SDS011;49390;51.380;0.098;2023-10-31T08:21:18;4.60;;;1.80;;
63259;SDS011;49390;51.380;0.098;2023-10-31T08:23:46;5.28;;;1.80;;
63259;SDS011;49390;51.380;0.098;2023-10-31T08:26:14;3.92;;;1.80;;
63259;SDS011;49390;51.380;0.098;2023-10-31T08:28:41;4.18;;;1.80;;
63259;SDS011;49390;51.380;0.098;2023-10-31T08:31:09;3.83;;;1.75;;
63259;SDS011;49390;51.380;0.098;2023-10-31T08:33:37;3.03;;;1.80;;
63259;SDS011;49390;51.380;0.098;2023-10-31T08:36:05;3.33;;;1.60;;
63259;SDS011;49390;51.380;0.098;2023-10-31T08:38:34;2.97;;;1.60;;
63259;SDS011;49390;51.380;0.098;2023-10-31T08:41:02;4.35;;;1.80;;
63259;SDS011;49390;51.380;0.098;2023-10-31T08:43:30;6.25;;;1.70;;
63259;SDS011;49390;51.380;0.098;2023-10-31T08:45:57;3.78;;;1.80;;
63259;SDS011;49390;51.380;0.098;2023-10-31T08:48:26;6.90;;;1.88;;
63259;SDS011;49390;51.380;0.098;2023-10-31T08:50:54;4.68;;;1.65;;
63259;SDS011;49390;51.380;0.098;2023-10-31T08:53:21;4.20;;;1.88;;
63259;SDS011;49390;51.380;0.098;2023-10-31T08:55:50;6.50;;;1.88;;
63259;SDS011;49390;51.380;0.098;2023-10-31T08:58:17;4.63;;;1.73;;
63259;SDS011;49390;51.380;0.098;2023-10-31T09:00:45;5.18;;;2.08;;
63259;SDS011;49390;51.380;0.098;2023-10-31T09:03:13;4.07;;;1.77;;
63259;SDS011;49390;51.380;0.098;2023-10-31T09:05:42;5.35;;;1.98;;
63259;SDS011;49390;51.380;0.098;2023-10-31T09:08:11;5.07;;;1.90;;
63259;SDS011;49390;51.380;0.098;2023-10-31T09:10:39;5.63;;;2.25;;
63259;SDS011;49390;51.380;0.098;2023-10-31T09:13:06;4.50;;;2.00;;
63259;SDS011;49390;51.380;0.098;2023-10-31T09:15:34;5.80;;;2.05;;
63259;SDS011;49390;51.380;0.098;2023-10-31T09:18:03;6.47;;;1.75;;
63259;SDS011;49390;51.380;0.098;2023-10-31T09:20:31;5.72;;;2.10;;
63259;SDS011;49390;51.380;0.098;2023-10-31T09:22:59;4.03;;;1.77;;
63259;SDS011;49390;51.380;0.098;2023-10-31T09:25:26;4.78;;;1.70;;
63259;SDS011;49390;51.380;0.098;2023-10-31T09:27:54;3.03;;;1.73;;
63259;SDS011;49390;51.380;0.098;2023-10-31T09:30:22;5.38;;;2.10;;
63259;SDS011;49390;51.380;0.098;2023-10-31T09:32:50;6.25;;;1.63;;
63259;SDS011;49390;51.380;0.098;2023-10-31T09:35:18;5.32;;;2.10;;
63259;SDS011;49390;51.380;0.098;2023-10-31T09:37:46;9.25;;;2.15;;
63259;SDS011;49390;51.380;0.098;2023-10-31T09:40:16;6.45;;;2.10;;
63259;SDS011;49390;51.380;0.098;2023-10-31T09:42:44;7.72;;;2.10;;
63259;SDS011;49390;51.380;0.098;2023-10-31T09:45:13;13.18;;;2.17;;
63259;SDS011;49390;51.380;0.098;2023-10-31T09:47:41;6.28;;;2.10;;
63259;SDS011;49390;51.380;0.098;2023-10-31T09:50:10;5.03;;;2.22;;
63259;SDS011;49390;51.380;0.098;2023-10-31T09:52:39;6.60;;;2.42;;
63259;SDS011;49390;51.380;0.098;2023-10-31T09:55:07;4.82;;;2.20;;
63259;SDS011;49390;51.380;0.098;2023-10-31T09:57:35;4.63;;;2.17;;
63259;SDS011;49390;51.380;0.098;2023-10-31T10:00:03;6.82;;;2.40;;
63259;SDS011;49390;51.380;0.098;2023-10-31T10:02:36;6.80;;;2.35;;
63259;SDS011;49390;51.380;0.098;2023-10-31T10:05:04;5.13;;;2.50;;
63259;SDS011;49390;51.380;0.098;2023-10-31T10:07:33;7.65;;;3.55;;
63259;SDS011;49390;51.380;0.098;2023-10-31T10:10:03;5.82;;;2.30;;
63259;SDS011;49390;51.380;0.098;2023-10-31T10:12:31;5.03;;;2.20;;
63259;SDS011;49390;51.380;0.098;2023-10-31T10:14:59;5.35;;;1.95;;
63259;SDS011;49390;51.380;0.098;2023-10-31T10:17:26;4.60;;;2.28;;
63259;SDS011;49390;51.380;0.098;2023-10-31T10:20:04;7.93;;;2.38;;
63259;SDS011;49390;51.380;0.098;2023-10-31T10:22:37;7.13;;;3.00;;
63259;SDS011;49390;51.380;0.098;2023-10-31T10:25:07;7.07;;;2.75;;
63259;SDS011;49390;51.380;0.098;2023-10-31T10:27:35;5.07;;;2.42;;
63259;SDS011;49390;51.380;0.098;2023-10-31T10:30:03;6.15;;;2.30;;
63259;SDS011;49390;51.380;0.098;2023-10-31T10:32:32;7.22;;;2.92;;
63259;SDS011;49390;51.380;0.098;2023-10-31T10:35:00;4.25;;;2.05;;
63259;SDS011;49390;51.380;0.098;2023-10-31T10:37:29;5.05;;;2.40;;
63259;SDS011;49390;51.380;0.098;2023-10-31T10:39:57;5.93;;;2.40;;
63259;SDS011;49390;51.380;0.098;2023-10-31T10:42:30;4.50;;;2.47;;
63259;SDS011;49390;51.380;0.098;2023-10-31T10:45:03;5.60;;;2.60;;
63259;SDS011;49390;51.380;0.098;2023-10-31T10:47:34;6.68;;;2.40;;
63259;SDS011;49390;51.380;0.098;2023-10-31T10:50:05;7.03;;;2.60;;
63259;SDS011;49390;51.380;0.098;2023-10-31T10:52:38;5.15;;;2.60;;
63259;SDS011;49390;51.380;0.098;2023-10-31T10:55:13;6.10;;;2.50;;
63259;SDS011;49390;51.380;0.098;2023-10-31T10:57:55;4.88;;;2.70;;
63259;SDS011;49390;51.380;0.098;2023-10-31T11:00:36;5.55;;;2.50;;
63259;SDS011;49390;51.380;0.098;2023-10-31T11:03:04;5.68;;;2.67;;
63259;SDS011;49390;51.380;0.098;2023-10-31T11:05:34;4.80;;;2.20;;
63259;SDS011;49390;51.380;0.098;2023-10-31T11:08:03;5.15;;;2.30;;
63259;SDS011;49390;51.380;0.098;2023-10-31T11:10:32;6.07;;;2.45;;
63259;SDS011;49390;51.380;0.098;2023-10-31T11:13:01;5.47;;;2.60;;
63259;SDS011;49390;51.380;0.098;2023-10-31T11:15:29;4.05;;;2.15;;
63259;SDS011;49390;51.380;0.098;2023-10-31T11:17:57;3.67;;;2.03;;
63259;SDS011;49390;51.380;0.098;2023-10-31T11:20:26;5.88;;;2.45;;
63259;SDS011;49390;51.380;0.098;2023-10-31T11:22:56;7.05;;;2.60;;
63259;SDS011;49390;51.380;0.098;2023-10-31T11:25:25;6.07;;;2.38;;
63259;SDS011;49390;51.380;0.098;2023-10-31T11:28:15;5.10;;;2.30;;
63259;SDS011;49390;51.380;0.098;2023-10-31T11:30:50;6.72;;;2.20;;
63259;SDS011;49390;51.380;0.098;2023-10-31T11:33:24;4.03;;;1.90;;
63259;SDS011;49390;51.380;0.098;2023-10-31T11:36:01;6.75;;;2.30;;
63259;SDS011;49390;51.380;0.098;2023-10-31T11:38:31;3.60;;;1.83;;
63259;SDS011;49390;51.380;0.098;2023-10-31T11:46:19;4.97;;;2.10;;
63259;SDS011;49390;51.380;0.098;2023-10-31T11:48:51;6.32;;;2.20;;
63259;SDS011;49390;51.380;0.098;2023-10-31T11:51:20;6.40;;;2.15;;
63259;SDS011;49390;51.380;0.098;2023-10-31T11:53:48;5.30;;;2.33;;
63259;SDS011;49390;51.380;0.098;2023-10-31T11:56:19;6.53;;;2.35;;
63259;SDS011;49390;51.380;0.098;2023-10-31T11:58:58;3.72;;;2.40;;
63259;SDS011;49390;51.380;0.098;2023-10-31T12:01:30;4.40;;;2.10;;
63259;SDS011;49390;51.380;0.098;2023-10-31T12:03:58;3.47;;;2.00;;
63259;SDS011;49390;51.380;0.098;2023-10-31T12:06:27;4.03;;;2.00;;
63259;SDS011;49390;51.380;0.098;2023-10-31T12:08:58;4.00;;;2.03;;
63259;SDS011;49390;51.380;0.098;2023-10-31T12:11:28;7.80;;;2.50;;
63259;SDS011;49390;51.380;0.098;2023-10-31T12:13:57;4.30;;;1.90;;
63259;SDS011;49390;51.380;0.098;2023-10-31T12:16:33;4.10;;;1.90;;
63259;SDS011;49390;51.380;0.098;2023-10-31T12:19:02;3.63;;;2.10;;
63259;SDS011;49390;51.380;0.098;2023-10-31T12:21:44;4.80;;;2.20;;
63259;SDS011;49390;51.380;0.098;2023-10-31T12:24:17;7.25;;;2.15;;
63259;SDS011;49390;51.380;0.098;2023-10-31T12:26:46;5.43;;;2.17;;
63259;SDS011;49390;51.380;0.098;2023-10-31T12:29:15;4.32;;;1.90;;
63259;SDS011;49390;51.380;0.098;2023-10-31T12:34:24;4.57;;;2.30;;
63259;SDS011;49390;51.380;0.098;2023-10-31T12:36:54;5.70;;;2.10;;
63259;SDS011;49390;51.380;0.098;2023-10-31T12:39:24;4.32;;;1.73;;
63259;SDS011;49390;51.380;0.098;2023-10-31T12:41:54;3.60;;;1.73;;
63259;SDS011;49390;51.380;0.098;2023-10-31T12:44:25;6.68;;;1.90;;
63259;SDS011;49390;51.380;0.098;2023-10-31T12:46:56;4.07;;;1.55;;
63259;SDS011;49390;51.380;0.098;2023-10-31T12:49:23;3.92;;;1.50;;
63259;SDS011;49390;51.380;0.098;2023-10-31T12:51:55;4.63;;;1.75;;
63259;SDS011;49390;51.380;0.098;2023-10-31T12:54:32;4.03;;;1.80;;
63259;SDS011;49390;51.380;0.098;2023-10-31T12:57:05;4.93;;;2.10;;
63259;SDS011;49390;51.380;0.098;2023-10-31T12:59:39;3.63;;;1.58;;
63259;SDS011;49390;51.380;0.098;2023-10-31T13:02:07;3.15;;;1.70;;
63259;SDS011;49390;51.380;0.098;2023-10-31T13:04:37;3.80;;;1.50;;
63259;SDS011;49390;51.380;0.098;2023-10-31T13:07:06;3.40;;;1.50;;
63259;SDS011;49390;51.380;0.098;2023-10-31T13:09:35;3.42;;;1.35;;
63259;SDS011;49390;51.380;0.098;2023-10-31T13:14:34;2.38;;;1.65;;
63259;SDS011;49390;51.380;0.098;2023-10-31T13:17:05;3.47;;;1.40;;
63259;SDS011;49390;51.380;0.098;2023-10-31T13:19:33;2.30;;;1.38;;
63259;SDS011;49390;51.380;0.098;2023-10-31T13:22:01;4.18;;;2.15;;
63259;SDS011;49390;51.380;0.098;2023-10-31T13:24:29;2.58;;;1.38;;
63259;SDS011;49390;51.380;0.098;2023-10-31T13:26:58;4.88;;;1.48;;
63259;SDS011;49390;51.380;0.098;2023-10-31T13:29:26;2.65;;;1.50;;
63259;SDS011;49390;51.380;0.098;2023-10-31T13:31:55;1.92;;;1.10;;
63259;SDS011;49390;51.380;0.098;2023-10-31T13:34:23;2.80;;;1.67;;
63259;SDS011;49390;51.380;0.098;2023-10-31T13:36:51;5.00;;;1.50;;
63259;SDS011;49390;51.380;0.098;2023-10-31T13:39:21;4.05;;;1.45;;
63259;SDS011;49390;51.380;0.098;2023-10-31T13:41:49;3.63;;;1.50;;
63259;SDS011;49390;51.380;0.098;2023-10-31T13:44:18;1.45;;;1.30;;
63259;SDS011;49390;51.380;0.098;2023-10-31T13:46:46;1.85;;;1.30;;
63259;SDS011;49390;51.380;0.098;2023-10-31T13:49:14;3.58;;;1.40;;
63259;SDS011;49390;51.380;0.098;2023-10-31T13:51:42;2.33;;;1.50;;
63259;SDS011;49390;51.380;0.098;2023-10-31T13:54:09;2.55;;;1.50;;
63259;SDS011;49390;51.380;0.098;2023-10-31T13:56:37;1.73;;;1.33;;
63259;SDS011;49390;51.380;0.098;2023-10-31T13:59:05;3.38;;;1.50;;
63259;SDS011;49390;51.380;0.098;2023-10-31T14:01:33;4.43;;;1.60;;
63259;SDS011;49390;51.380;0.098;2023-10-31T14:04:01;9.38;;;1.98;;
63259;SDS011;49390;51.380;0.098;2023-10-31T14:06:29;3.60;;;1.67;;
63259;SDS011;49390;51.380;0.098;2023-10-31T14:08:59;5.43;;;1.70;;
63259;SDS011;49390;51.380;0.098;2023-10-31T14:11:32;3.42;;;1.20;;
63259;SDS011;49390;51.380;0.098;2023-10-31T14:14:01;2.55;;;1.60;;
63259;SDS011;49390;51.380;0.098;2023-10-31T14:16:38;4.45;;;1.50;;
63259;SDS011;49390;51.380;0.098;2023-10-31T14:19:11;3.22;;;1.60;;
63259;SDS011;49390;51.380;0.098;2023-10-31T14:21:40;2.60;;;1.40;;
63259;SDS011;49390;51.380;0.098;2023-10-31T14:24:09;4.70;;;1.50;;
63259;SDS011;49390;51.380;0.098;2023-10-31T14:26:39;2.50;;;1.38;;
63259;SDS011;49390;51.380;0.098;2023-10-31T14:29:10;4.53;;;1.50;;
63259;SDS011;49390;51.380;0.098;2023-10-31T14:31:41;2.30;;;1.40;;
63259;SDS011;49390;51.380;0.098;2023-10-31T14:34:09;2.58;;;1.60;;
63259;SDS011;49390;51.380;0.098;2023-10-31T14:36:38;2.20;;;1.27;;
63259;SDS011;49390;51.380;0.098;2023-10-31T14:39:06;6.95;;;1.55;;
63259;SDS011;49390;51.380;0.098;2023-10-31T14:41:35;2.03;;;1.23;;
63259;SDS011;49390;51.380;0.098;2023-10-31T14:44:03;3.42;;;1.42;;
63259;SDS011;49390;51.380;0.098;2023-10-31T14:46:31;3.40;;;1.30;;
63259;SDS011;49390;51.380;0.098;2023-10-31T14:48:59;3.45;;;1.33;;
63259;SDS011;49390;51.380;0.098;2023-10-31T14:51:27;3.15;;;1.70;;
63259;SDS011;49390;51.380;0.098;2023-10-31T14:53:55;2.67;;;1.65;;
63259;SDS011;49390;51.380;0.098;2023-10-31T14:56:23;4.15;;;1.60;;
63259;SDS011;49390;51.380;0.098;2023-10-31T14:58:51;3.70;;;1.60;;
63259;SDS011;49390;51.380;0.098;2023-10-31T15:01:18;3.60;;;1.45;;
63259;SDS011;49390;51.380;0.098;2023-10-31T15:03:46;2.85;;;1.50;;
63259;SDS011;49390;51.380;0.098;2023-10-31T15:06:14;1.98;;;1.40;;
63259;SDS011;49390;51.380;0.098;2023-10-31T15:08:43;2.83;;;1.60;;